Time;durP1;ratioP1;P1;durP2;ratioP2;P2;SDS_P1;SDS_P2;PMS_P1;PMS_P2;Temp;Humidity;BMP_temperature;BMP_pressure;BME280_temperature;BME280_humidity;BME280_pressure;Samples;Min_cycle;Max_cycle;Signal;HPM_P1;HPM_P2
2021/04/08 00:00:51;;;;;;;3.00;2.00;;;-0.40;99.90;;;;;;2066233;28;20205;-63
2021/04/08 00:01:52;;;;;;;3.50;2.30;;;-0.40;99.90;;;;;;2065749;28;20226;-64
2021/04/08 00:02:53;;;;;;;4.23;2.33;;;-0.50;99.90;;;;;;2065943;28;20260;-66
2021/04/08 00:03:53;;;;;;;4.03;2.10;;;-0.40;99.90;;;;;;2065403;28;20189;-64
2021/04/08 00:04:54;;;;;;;2.67;1.90;;;-0.50;99.90;;;;;;2065355;28;20179;-63
2021/04/08 00:05:55;;;;;;;3.87;2.20;;;-0.50;99.90;;;;;;2065982;28;20200;-64
2021/04/08 00:06:56;;;;;;;4.23;2.30;;;-0.50;99.90;;;;;;2065897;28;20208;-63
2021/04/08 00:07:56;;;;;;;3.75;2.33;;;-0.50;99.90;;;;;;2065086;28;20720;-64
2021/04/08 00:08:57;;;;;;;3.80;2.20;;;-0.60;99.90;;;;;;2065143;28;20192;-64
2021/04/08 00:09:58;;;;;;;3.97;1.90;;;-0.50;99.90;;;;;;2065833;28;20247;-63
2021/04/08 00:10:59;;;;;;;3.30;2.20;;;-0.50;99.90;;;;;;2065812;28;20716;-64
2021/04/08 00:11:59;;;;;;;4.83;2.33;;;-0.50;99.90;;;;;;2065612;28;20205;-63
2021/04/08 00:13:00;;;;;;;5.27;2.20;;;-0.50;99.90;;;;;;2065886;28;20217;-63
2021/04/08 00:14:01;;;;;;;3.73;2.37;;;-0.50;99.90;;;;;;2066122;28;20188;-64
2021/04/08 00:15:09;;;;;;;5.27;2.37;;;-0.50;99.90;;;;;;2065873;28;20208;-63
2021/04/08 00:16:09;;;;;;;6.47;2.25;;;-0.60;99.90;;;;;;2065347;28;20178;-63
2021/04/08 00:17:10;;;;;;;3.97;2.47;;;-0.60;99.90;;;;;;2065245;28;20674;-63
2021/04/08 00:18:11;;;;;;;4.10;2.40;;;-0.60;99.90;;;;;;2066039;28;20183;-65
2021/04/08 00:19:12;;;;;;;3.65;2.60;;;-0.60;99.90;;;;;;2065800;28;20585;-65
2021/04/08 00:20:18;;;;;;;3.93;2.33;;;-0.60;99.90;;;;;;2065369;28;20184;-66
2021/04/08 00:21:19;;;;;;;5.60;2.13;;;-0.60;99.90;;;;;;2065086;28;20186;-65
2021/04/08 00:22:20;;;;;;;4.10;2.27;;;-0.50;99.90;;;;;;2066171;28;20185;-65
2021/04/08 00:23:21;;;;;;;3.47;2.20;;;-0.50;99.90;;;;;;2066020;28;20663;-65
2021/04/08 00:24:22;;;;;;;3.53;2.30;;;-0.50;99.90;;;;;;2065796;28;20611;-65
2021/04/08 00:25:23;;;;;;;3.63;2.20;;;-0.50;99.90;;;;;;2065991;28;20185;-65
2021/04/08 00:26:23;;;;;;;3.97;2.63;;;-0.40;99.90;;;;;;2065206;28;20670;-65
2021/04/08 00:27:24;;;;;;;3.87;2.40;;;-0.40;99.90;;;;;;2065255;28;20229;-65
2021/04/08 00:28:25;;;;;;;5.23;2.50;;;-0.40;99.90;;;;;;2066027;28;20561;-65
2021/04/08 00:29:25;;;;;;;3.73;2.07;;;-0.30;99.90;;;;;;2065610;28;20200;-65
2021/04/08 00:30:26;;;;;;;4.50;2.63;;;-0.30;99.90;;;;;;2065919;28;20259;-65
2021/04/08 00:31:27;;;;;;;3.00;2.57;;;-0.30;99.90;;;;;;2065474;28;20679;-65
2021/04/08 00:32:27;;;;;;;3.07;2.47;;;-0.30;99.90;;;;;;2065712;28;20177;-65
2021/04/08 00:33:28;;;;;;;3.80;2.67;;;-0.20;99.90;;;;;;2065714;28;20183;-65
2021/04/08 00:34:29;;;;;;;4.23;2.50;;;-0.30;99.90;;;;;;2065834;28;20552;-66
2021/04/08 00:35:29;;;;;;;4.60;2.20;;;-0.30;99.90;;;;;;2065359;28;20173;-65
2021/04/08 00:36:30;;;;;;;6.30;2.50;;;-0.30;99.90;;;;;;2065633;28;20524;-65
2021/04/08 00:37:31;;;;;;;4.33;2.37;;;-0.30;99.90;;;;;;2065683;28;20176;-65
2021/04/08 00:38:32;;;;;;;5.40;2.43;;;-0.30;99.90;;;;;;2065739;28;20177;-65
2021/04/08 00:39:32;;;;;;;3.33;2.53;;;-0.30;99.90;;;;;;2065711;28;20181;-65
2021/04/08 00:40:33;;;;;;;4.07;2.57;;;-0.30;99.90;;;;;;2065758;28;20184;-65
2021/04/08 00:41:34;;;;;;;2.97;2.50;;;-0.20;99.90;;;;;;2065490;28;20208;-65
2021/04/08 00:42:34;;;;;;;5.13;2.67;;;-0.30;99.90;;;;;;2065469;28;20177;-65
2021/04/08 00:43:35;;;;;;;5.00;2.60;;;-0.30;99.90;;;;;;2065113;28;20259;-65
2021/04/08 00:44:36;;;;;;;3.80;2.50;;;-0.40;99.90;;;;;;2065900;28;20207;-65
2021/04/08 00:45:37;;;;;;;3.87;2.50;;;-0.30;99.90;;;;;;2065508;28;20172;-65
2021/04/08 00:46:37;;;;;;;3.50;2.40;;;-0.20;99.90;;;;;;2065690;28;20176;-65
2021/04/08 00:47:38;;;;;;;6.03;2.70;;;-0.20;99.90;;;;;;2065277;28;20177;-65
2021/04/08 00:48:39;;;;;;;4.77;2.37;;;-0.20;99.90;;;;;;2064978;28;20230;-65
2021/04/08 00:49:39;;;;;;;4.33;2.60;;;-0.20;99.90;;;;;;2057018;28;20181;-65
2021/04/08 00:50:40;;;;;;;3.60;2.20;;;-0.20;99.90;;;;;;2064934;28;20250;-65
2021/04/08 00:51:41;;;;;;;3.67;2.67;;;-0.30;99.90;;;;;;2065415;28;20671;-65
2021/04/08 00:52:45;;;;;;;4.10;2.63;;;-0.20;99.90;;;;;;2064984;28;20188;-65
2021/04/08 00:53:47;;;;;;;4.20;2.67;;;-0.20;99.90;;;;;;2057627;28;20276;-65
2021/04/08 00:54:48;;;;;;;4.65;2.80;;;-0.20;99.90;;;;;;2057127;28;20741;-65
2021/04/08 00:55:53;;;;;;;5.00;2.60;;;-0.20;99.90;;;;;;2065051;28;20181;-65
2021/04/08 00:56:53;;;;;;;4.20;2.75;;;-0.20;99.90;;;;;;2065089;28;20185;-65
2021/04/08 00:58:00;;;;;;;4.20;2.60;;;-0.20;99.90;;;;;;2065204;28;20184;-65
2021/04/08 00:59:01;;;;;;;5.30;2.70;;;-0.20;99.90;;;;;;2065010;28;20213;-65
2021/04/08 01:00:06;;;;;;;5.93;2.50;;;-0.20;99.90;;;;;;2065814;28;20242;-65
2021/04/08 01:01:07;;;;;;;5.15;2.45;;;-0.10;99.90;;;;;;2065530;28;20652;-65
2021/04/08 01:02:09;;;;;;;5.82;2.70;;;-0.20;99.90;;;;;;2065471;28;20206;-65
2021/04/08 01:03:11;;;;;;;3.78;2.20;;;-0.20;99.90;;;;;;2064968;28;20228;-65
2021/04/08 01:04:12;;;;;;;4.30;2.42;;;-0.20;99.90;;;;;;2057093;28;20178;-65
2021/04/08 01:05:13;;;;;;;4.03;2.53;;;-0.20;99.90;;;;;;2064989;28;20851;-65
2021/04/08 01:06:13;;;;;;;3.63;2.17;;;-0.20;99.90;;;;;;2065690;28;21158;-64
2021/04/08 01:07:14;;;;;;;4.40;2.40;;;-0.20;99.90;;;;;;2065539;28;20424;-66
2021/04/08 01:08:15;;;;;;;4.93;2.80;;;-0.20;99.90;;;;;;2067992;28;20237;-65
2021/04/08 01:09:16;;;;;;;3.63;2.40;;;-0.20;99.90;;;;;;2065693;28;20209;-65
2021/04/08 01:10:19;;;;;;;4.57;2.50;;;-0.20;99.90;;;;;;2065623;28;20206;-65
2021/04/08 01:11:20;;;;;;;4.25;2.42;;;-0.20;99.90;;;;;;2065408;28;20181;-65
2021/04/08 01:12:21;;;;;;;3.50;2.60;;;-0.10;99.90;;;;;;2065844;28;20182;-65
2021/04/08 01:13:22;;;;;;;4.73;2.57;;;-0.10;99.90;;;;;;2065565;28;20215;-65
2021/04/08 01:14:23;;;;;;;4.63;2.58;;;-0.10;99.90;;;;;;2065106;28;20185;-65
2021/04/08 01:15:24;;;;;;;3.67;2.40;;;-0.10;99.90;;;;;;2056931;28;20715;-65
2021/04/08 01:16:51;;;;;;;4.65;2.65;;;-0.10;99.90;;;;;;2056993;28;20243;-65
2021/04/08 01:18:22;;;;;;;4.18;2.50;;;-0.10;99.90;;;;;;2056812;28;20178;-65
2021/04/08 01:19:58;;;;;;;5.50;2.25;;;-0.10;99.90;;;;;;2061196;28;20254;-65
2021/04/08 01:21:07;;;;;;;3.97;2.65;;;-0.20;99.90;;;;;;2065592;28;20196;-64
2021/04/08 01:22:59;;;;;;;3.92;2.63;;;-0.20;99.90;;;;;;2064840;28;20204;-65
2021/04/08 01:24:33;;;;;;;3.35;2.38;;;-0.10;99.90;;;;;;2064646;28;20202;-65
2021/04/08 01:26:04;;;;;;;6.55;3.25;;;-0.20;99.90;;;;;;2065179;28;20189;-65
2021/04/08 01:27:43;;;;;;;4.68;2.53;;;-0.20;99.90;;;;;;2065540;28;20283;-65
2021/04/08 01:28:48;;;;;;;6.22;2.67;;;-0.20;99.90;;;;;;2065420;28;20190;-65
2021/04/08 01:30:00;;;;;;;4.65;2.83;;;-0.20;99.90;;;;;;2064826;28;20213;-65
2021/04/08 01:31:12;;;;;;;3.08;2.50;;;-0.20;99.90;;;;;;2064990;28;20200;-65
2021/04/08 01:32:16;;;;;;;5.90;2.83;;;-0.10;99.90;;;;;;2058269;28;20263;-65
2021/04/08 01:33:24;;;;;;;4.32;2.90;;;-0.10;99.90;;;;;;2065013;28;20174;-65
2021/04/08 01:34:27;;;;;;;4.07;2.80;;;-0.10;99.90;;;;;;2057792;28;20271;-65
2021/04/08 01:35:31;;;;;;;5.43;2.72;;;-0.20;99.90;;;;;;2064854;28;20808;-65
2021/04/08 01:36:34;;;;;;;5.63;2.60;;;-0.20;99.90;;;;;;2064577;28;20184;-65
2021/04/08 01:37:48;;;;;;;5.82;2.70;;;-0.20;99.90;;;;;;2056942;28;20276;-65
2021/04/08 01:38:59;;;;;;;4.72;2.75;;;-0.10;99.90;;;;;;2064758;28;20239;-65
2021/04/08 01:40:04;;;;;;;2.97;2.35;;;-0.20;99.90;;;;;;2057783;28;20173;-65
2021/04/08 01:41:06;;;;;;;4.78;2.65;;;-0.20;99.90;;;;;;2064660;28;20208;-65
2021/04/08 01:42:08;;;;;;;3.42;2.25;;;-0.10;99.90;;;;;;2064400;28;20204;-65
2021/04/08 01:43:09;;;;;;;4.97;2.60;;;-0.20;99.90;;;;;;2056931;28;20188;-65
2021/04/08 01:44:17;;;;;;;5.22;2.70;;;-0.20;99.90;;;;;;2064689;28;20223;-65
2021/04/08 01:45:21;;;;;;;4.38;2.60;;;-0.20;99.90;;;;;;2057716;28;20203;-65
2021/04/08 01:46:24;;;;;;;4.85;2.88;;;-0.20;99.90;;;;;;2064705;28;20193;-65
2021/04/08 01:47:28;;;;;;;3.15;2.78;;;-0.20;99.90;;;;;;2064809;28;20207;-65
2021/04/08 01:48:31;;;;;;;4.10;2.50;;;-0.20;99.90;;;;;;2057144;28;20600;-65
2021/04/08 01:49:34;;;;;;;4.90;2.58;;;-0.20;99.90;;;;;;2064738;28;20562;-65
2021/04/08 01:50:35;;;;;;;5.05;3.20;;;-0.20;99.90;;;;;;2056976;28;20183;-65
2021/04/08 01:51:37;;;;;;;5.37;2.90;;;-0.10;99.90;;;;;;2056521;28;20257;-65
2021/04/08 01:52:46;;;;;;;5.63;2.83;;;-0.20;99.90;;;;;;2064676;28;20211;-65
2021/04/08 01:53:50;;;;;;;5.28;3.15;;;-0.20;99.90;;;;;;2064785;28;20174;-65
2021/04/08 01:54:57;;;;;;;5.25;2.70;;;-0.20;99.90;;;;;;2057096;28;20234;-65
2021/04/08 01:56:01;;;;;;;3.67;2.72;;;-0.20;99.90;;;;;;2057500;28;20170;-65
2021/04/08 01:57:06;;;;;;;4.57;2.88;;;-0.20;99.90;;;;;;2056923;28;20188;-65
2021/04/08 01:58:08;;;;;;;6.80;3.15;;;-0.20;99.90;;;;;;2064672;28;20233;-65
2021/04/08 01:59:14;;;;;;;5.00;2.95;;;-0.20;99.90;;;;;;2064136;28;20699;-65
2021/04/08 02:00:20;;;;;;;4.90;2.78;;;-0.20;99.90;;;;;;2064345;28;20578;-65
2021/04/08 02:01:22;;;;;;;4.05;2.70;;;-0.20;99.90;;;;;;2064506;28;20605;-65
2021/04/08 02:02:25;;;;;;;5.75;2.85;;;-0.30;99.90;;;;;;2064853;28;20193;-65
2021/04/08 02:03:26;;;;;;;4.18;2.90;;;-0.30;99.90;;;;;;2064733;28;20192;-65
2021/04/08 02:04:29;;;;;;;6.40;3.17;;;-0.30;99.90;;;;;;2064735;28;20190;-65
2021/04/08 02:05:31;;;;;;;4.07;2.60;;;-0.30;99.90;;;;;;2064723;28;20183;-65
2021/04/08 02:06:33;;;;;;;5.40;3.00;;;-0.30;99.90;;;;;;2056839;28;20189;-65
2021/04/08 02:07:34;;;;;;;5.13;3.50;;;-0.30;99.90;;;;;;2056622;28;20216;-66
2021/04/08 02:08:38;;;;;;;6.72;2.60;;;-0.30;99.90;;;;;;2056788;28;20600;-65
2021/04/08 02:09:40;;;;;;;3.70;2.72;;;-0.30;99.90;;;;;;2064670;28;20231;-65
2021/04/08 02:10:44;;;;;;;5.25;3.00;;;-0.30;99.90;;;;;;2064775;28;20616;-65
2021/04/08 02:11:47;;;;;;;3.95;2.67;;;-0.30;99.90;;;;;;2064185;28;20578;-66
2021/04/08 02:12:50;;;;;;;6.30;2.95;;;-0.30;99.90;;;;;;2064556;28;20176;-65
2021/04/08 02:13:52;;;;;;;4.53;2.75;;;-0.40;99.90;;;;;;2056903;28;20186;-65
2021/04/08 02:14:53;;;;;;;4.78;2.80;;;-0.40;99.90;;;;;;2064571;28;20182;-65
2021/04/08 02:15:55;;;;;;;6.70;2.93;;;-0.40;99.90;;;;;;2065182;28;20279;-65
2021/04/08 02:16:57;;;;;;;5.80;3.00;;;-0.40;99.90;;;;;;2065207;28;20191;-65
2021/04/08 02:17:59;;;;;;;4.13;2.90;;;-0.40;99.90;;;;;;2064615;28;20223;-65
2021/04/08 02:19:03;;;;;;;5.20;2.40;;;-0.40;99.90;;;;;;2064438;28;20208;-65
2021/04/08 02:20:13;;;;;;;5.22;2.60;;;-0.40;99.90;;;;;;2065096;28;20220;-65
2021/04/08 02:21:15;;;;;;;6.38;2.80;;;-0.40;99.90;;;;;;2064229;28;20185;-65
2021/04/08 02:22:17;;;;;;;5.05;2.92;;;-0.40;99.90;;;;;;2064372;28;20694;-65
2021/04/08 02:23:24;;;;;;;5.93;2.88;;;-0.30;99.90;;;;;;2059075;28;20174;-65
2021/04/08 02:24:26;;;;;;;5.88;3.40;;;-0.30;99.90;;;;;;2072533;28;20205;-65
2021/04/08 02:25:31;;;;;;;5.28;3.58;;;-0.30;99.90;;;;;;2072280;28;20723;-65
2021/04/08 02:26:32;;;;;;;5.75;3.50;;;-0.30;99.90;;;;;;2065235;28;20284;-65
2021/04/08 02:27:37;;;;;;;5.33;3.67;;;-0.40;99.90;;;;;;2056471;28;20172;-65
2021/04/08 02:28:40;;;;;;;5.85;3.60;;;-0.40;99.90;;;;;;2058395;28;20215;-65
2021/04/08 02:29:41;;;;;;;7.63;3.60;;;-0.40;99.90;;;;;;2065371;28;20184;-65
2021/04/08 02:30:47;;;;;;;6.47;3.05;;;-0.40;99.90;;;;;;2065231;28;20179;-64
2021/04/08 02:31:50;;;;;;;5.95;3.50;;;-0.40;99.90;;;;;;2073165;28;20214;-65
2021/04/08 02:32:52;;;;;;;4.93;3.05;;;-0.40;99.90;;;;;;2074110;28;20183;-65
2021/04/08 02:33:53;;;;;;;4.32;2.95;;;-0.30;99.90;;;;;;2073285;28;20210;-65
2021/04/08 02:34:54;;;;;;;4.07;2.88;;;-0.30;99.90;;;;;;2072724;28;20679;-65
2021/04/08 02:35:56;;;;;;;5.27;3.03;;;-0.30;99.90;;;;;;2064496;28;20271;-65
2021/04/08 02:36:57;;;;;;;6.55;3.20;;;-0.30;99.90;;;;;;2072609;28;20265;-65
2021/04/08 02:37:58;;;;;;;5.07;3.40;;;-0.30;99.90;;;;;;2073046;28;20626;-65
2021/04/08 02:38:58;;;;;;;6.43;3.00;;;-0.30;99.90;;;;;;2073092;28;20287;-64
2021/04/08 02:39:59;;;;;;;6.97;3.17;;;-0.30;99.90;;;;;;2073050;28;20183;-65
2021/04/08 02:41:04;;;;;;;4.63;3.10;;;-0.30;99.90;;;;;;2073289;28;20261;-65
2021/04/08 02:42:06;;;;;;;6.47;3.03;;;-0.30;99.90;;;;;;2072189;28;20203;-65
2021/04/08 02:43:12;;;;;;;4.65;3.13;;;-0.30;99.90;;;;;;2064620;28;20185;-65
2021/04/08 02:44:16;;;;;;;6.32;3.03;;;-0.30;99.90;;;;;;2064998;28;20533;-65
2021/04/08 02:45:17;;;;;;;5.07;3.03;;;-0.30;99.90;;;;;;2072716;28;20189;-65
2021/04/08 02:46:18;;;;;;;5.97;2.90;;;-0.20;99.90;;;;;;2073065;28;20685;-65
2021/04/08 02:47:18;;;;;;;5.23;3.00;;;-0.20;99.90;;;;;;2073077;28;20198;-65
2021/04/08 02:48:24;;;;;;;4.50;2.80;;;-0.20;99.90;;;;;;2073020;28;20186;-65
2021/04/08 02:49:25;;;;;;;7.03;3.03;;;-0.20;99.90;;;;;;2072489;28;20175;-65
2021/04/08 02:50:25;;;;;;;4.50;3.00;;;-0.20;99.90;;;;;;2072310;28;20606;-66
2021/04/08 02:51:38;;;;;;;4.07;2.70;;;-0.20;99.90;;;;;;2072660;28;20643;-65
2021/04/08 02:53:15;;;;;;;4.47;3.05;;;-0.10;99.90;;;;;;2072410;28;20175;-65
2021/04/08 02:54:43;;;;;;;6.00;2.80;;;-0.20;99.90;;;;;;2072977;28;20187;-65
2021/04/08 02:55:50;;;;;;;5.50;3.25;;;-0.20;99.90;;;;;;2073164;28;20187;-65
2021/04/08 02:56:54;;;;;;;4.63;3.00;;;-0.20;99.90;;;;;;2072515;28;20720;-65
2021/04/08 02:58:03;;;;;;;4.55;2.72;;;-0.20;99.90;;;;;;2064888;28;20180;-65
2021/04/08 02:59:21;;;;;;;5.05;2.92;;;-0.20;99.90;;;;;;2065428;28;20212;-65
2021/04/08 03:00:29;;;;;;;7.88;3.45;;;-0.20;99.90;;;;;;2066770;28;20262;-65
2021/04/08 03:01:30;;;;;;;5.03;3.05;;;-0.20;99.90;;;;;;2072358;28;20180;-65
2021/04/08 03:02:35;;;;;;;6.07;3.08;;;-0.20;99.90;;;;;;2072463;28;20177;-65
2021/04/08 03:03:58;;;;;;;6.25;3.08;;;-0.20;99.90;;;;;;2072488;28;20178;-65
2021/04/08 03:04:59;;;;;;;3.78;2.80;;;-0.20;99.90;;;;;;2072244;28;20698;-65
2021/04/08 03:06:04;;;;;;;4.40;2.60;;;-0.30;99.90;;;;;;2072450;28;20214;-65
2021/04/08 03:07:06;;;;;;;5.75;2.70;;;-0.30;99.90;;;;;;2068181;28;20600;-65
2021/04/08 03:08:11;;;;;;;4.43;2.80;;;-0.30;99.90;;;;;;2056460;28;20584;-65
2021/04/08 03:09:12;;;;;;;6.30;3.00;;;-0.30;99.90;;;;;;2064228;28;20225;-65
2021/04/08 03:10:15;;;;;;;4.45;2.85;;;-0.30;99.90;;;;;;2064981;28;20196;-65
2021/04/08 03:11:34;;;;;;;7.15;3.45;;;-0.40;99.90;;;;;;2064914;28;20608;-65
2021/04/08 03:12:38;;;;;;;4.93;2.95;;;-0.40;99.90;;;;;;2066175;28;20206;-65
2021/04/08 03:13:43;;;;;;;4.20;3.10;;;-0.40;99.90;;;;;;2066141;28;20189;-65
2021/04/08 03:14:48;;;;;;;5.18;3.03;;;-0.40;99.90;;;;;;2058852;28;20244;-65
2021/04/08 03:15:48;;;;;;;4.85;3.08;;;-0.30;99.90;;;;;;2058608;28;20172;-65
2021/04/08 03:16:50;;;;;;;4.97;2.90;;;-0.40;99.90;;;;;;2065959;28;20193;-65
2021/04/08 03:17:53;;;;;;;4.50;3.08;;;-0.30;99.90;;;;;;2065838;28;20183;-65
2021/04/08 03:18:57;;;;;;;4.25;2.95;;;-0.30;99.90;;;;;;2065867;28;20254;-64
2021/04/08 03:20:01;;;;;;;4.60;3.10;;;-0.40;99.90;;;;;;2065811;28;20657;-64
2021/04/08 03:21:03;;;;;;;5.10;2.63;;;-0.40;99.90;;;;;;2065864;28;20184;-64
2021/04/08 03:22:05;;;;;;;6.72;3.75;;;-0.40;99.90;;;;;;2065364;28;20286;-65
2021/04/08 03:23:10;;;;;;;4.22;2.97;;;-0.40;99.90;;;;;;2066168;28;20189;-64
2021/04/08 03:24:11;;;;;;;5.13;3.05;;;-0.40;99.90;;;;;;2065855;28;20687;-65
2021/04/08 03:25:13;;;;;;;3.60;2.80;;;-0.40;99.90;;;;;;2066617;28;20184;-65
2021/04/08 03:26:16;;;;;;;5.68;3.00;;;-0.40;99.90;;;;;;2065658;28;20291;-65
2021/04/08 03:27:19;;;;;;;6.03;3.17;;;-0.40;99.90;;;;;;2058053;28;20287;-65
2021/04/08 03:28:20;;;;;;;7.10;3.00;;;-0.40;99.90;;;;;;2065779;28;20680;-65
2021/04/08 03:29:22;;;;;;;4.57;2.90;;;-0.40;99.90;;;;;;2065938;28;20239;-64
2021/04/08 03:30:26;;;;;;;4.40;2.80;;;-0.40;99.90;;;;;;2066488;28;20186;-64
2021/04/08 03:31:27;;;;;;;6.80;3.20;;;-0.40;99.90;;;;;;2065598;28;20404;-68
2021/04/08 03:32:28;;;;;;;6.00;2.80;;;-0.40;99.90;;;;;;2065878;28;20188;-64
2021/04/08 03:33:32;;;;;;;6.20;3.33;;;-0.40;99.90;;;;;;2066604;28;20194;-65
2021/04/08 03:34:35;;;;;;;5.30;3.40;;;-0.40;99.90;;;;;;2066511;28;20179;-64
2021/04/08 03:35:37;;;;;;;6.07;3.67;;;-0.50;99.90;;;;;;2066095;28;20187;-65
2021/04/08 03:36:39;;;;;;;5.38;3.15;;;-0.50;99.90;;;;;;2066178;28;20216;-65
2021/04/08 03:37:41;;;;;;;5.38;3.47;;;-0.50;99.90;;;;;;2066498;28;20193;-64
2021/04/08 03:38:45;;;;;;;7.20;3.50;;;-0.50;99.90;;;;;;2066561;28;20211;-63
2021/04/08 03:39:47;;;;;;;8.40;4.03;;;-0.50;99.90;;;;;;2065860;28;20274;-63
2021/04/08 03:40:47;;;;;;;5.53;3.50;;;-0.60;99.90;;;;;;2065938;28;20555;-63
2021/04/08 03:41:49;;;;;;;4.87;3.17;;;-0.60;99.90;;;;;;2065483;28;20204;-64
2021/04/08 03:42:51;;;;;;;4.85;3.47;;;-0.60;99.90;;;;;;2065515;28;20963;-64
2021/04/08 03:43:52;;;;;;;5.63;2.92;;;-0.60;99.90;;;;;;2065759;28;20185;-64
2021/04/08 03:44:53;;;;;;;5.90;3.30;;;-0.60;99.90;;;;;;2065750;28;20209;-63
2021/04/08 03:45:59;;;;;;;4.40;3.00;;;-0.60;99.90;;;;;;2057391;28;20192;-63
2021/04/08 03:47:01;;;;;;;5.03;3.35;;;-0.60;99.90;;;;;;2050884;28;20185;-63
2021/04/08 03:48:03;;;;;;;5.30;3.20;;;-0.60;99.90;;;;;;2065472;28;20274;-63
2021/04/08 03:49:07;;;;;;;7.22;3.80;;;-0.60;99.90;;;;;;2065219;28;20205;-64
2021/04/08 03:50:11;;;;;;;4.72;3.30;;;-0.50;99.90;;;;;;2058325;28;20193;-63
2021/04/08 03:51:13;;;;;;;4.47;3.50;;;-0.50;99.90;;;;;;2065141;28;20255;-63
2021/04/08 03:52:14;;;;;;;4.28;3.08;;;-0.50;99.90;;;;;;2065416;28;20196;-64
2021/04/08 03:53:16;;;;;;;5.00;3.22;;;-0.60;99.90;;;;;;2065306;28;20225;-63
2021/04/08 03:54:18;;;;;;;8.02;4.07;;;-0.60;99.90;;;;;;2065913;28;20201;-64
2021/04/08 03:55:21;;;;;;;4.35;2.92;;;-0.60;99.90;;;;;;2065292;28;20251;-63
2021/04/08 03:56:24;;;;;;;5.43;3.35;;;-0.60;99.90;;;;;;2057734;28;20185;-63
2021/04/08 03:57:25;;;;;;;5.88;3.75;;;-0.60;99.90;;;;;;2065285;28;20188;-63
2021/04/08 03:58:27;;;;;;;9.30;3.50;;;-0.50;99.90;;;;;;2065348;28;20204;-63
2021/04/08 03:59:29;;;;;;;4.85;3.30;;;-0.60;99.90;;;;;;2057233;28;20694;-63
2021/04/08 04:00:30;;;;;;;5.70;3.47;;;-0.50;99.90;;;;;;2057418;28;20852;-63
2021/04/08 04:01:34;;;;;;;6.20;3.75;;;-0.50;99.90;;;;;;2064910;28;20663;-63
2021/04/08 04:02:36;;;;;;;6.45;2.95;;;-0.50;99.90;;;;;;2065320;28;20223;-63
2021/04/08 04:03:38;;;;;;;7.00;3.10;;;-0.50;99.90;;;;;;2057533;28;20251;-63
2021/04/08 04:04:39;;;;;;;4.28;3.42;;;-0.60;99.90;;;;;;2065402;28;20175;-63
2021/04/08 04:05:42;;;;;;;5.95;3.40;;;-0.60;99.90;;;;;;2065796;28;20257;-63
2021/04/08 04:06:48;;;;;;;5.35;3.95;;;-0.70;99.90;;;;;;2065949;28;20649;-64
2021/04/08 04:07:51;;;;;;;6.70;3.78;;;-0.60;99.90;;;;;;2065883;28;20172;-63
2021/04/08 04:08:53;;;;;;;7.28;3.75;;;-0.70;99.90;;;;;;2065864;28;20192;-63
2021/04/08 04:09:54;;;;;;;6.15;3.67;;;-0.70;99.90;;;;;;2065952;28;20266;-64
2021/04/08 04:10:55;;;;;;;5.27;3.67;;;-0.70;99.90;;;;;;2065928;28;20195;-63
2021/04/08 04:11:56;;;;;;;8.43;3.97;;;-0.60;99.90;;;;;;2057528;28;20205;-64
2021/04/08 04:12:57;;;;;;;6.40;3.72;;;-0.60;99.90;;;;;;2057873;28;20188;-64
2021/04/08 04:14:02;;;;;;;6.40;3.33;;;-0.50;99.90;;;;;;2049729;29;20199;-63
2021/04/08 04:15:06;;;;;;;6.38;3.65;;;-0.50;99.90;;;;;;2058141;28;20739;-63
2021/04/08 04:16:08;;;;;;;5.53;3.90;;;-0.50;99.90;;;;;;2066332;28;20192;-63
2021/04/08 04:17:29;;;;;;;7.20;3.78;;;-0.50;99.90;;;;;;2065710;28;20185;-64
2021/04/08 04:18:30;;;;;;;5.88;3.72;;;-0.40;99.90;;;;;;2065927;28;20199;-64
2021/04/08 04:19:31;;;;;;;5.70;3.60;;;-0.40;99.90;;;;;;2066370;28;20203;-64
2021/04/08 04:20:36;;;;;;;8.13;3.60;;;-0.40;99.90;;;;;;2065559;28;20180;-63
2021/04/08 04:21:36;;;;;;;6.35;4.00;;;-0.40;99.90;;;;;;2065489;28;20248;-64
2021/04/08 04:22:39;;;;;;;6.87;3.40;;;-0.40;99.90;;;;;;2065556;28;20185;-63
2021/04/08 04:23:42;;;;;;;5.10;3.55;;;-0.30;99.90;;;;;;2066109;28;20551;-63
2021/04/08 04:24:42;;;;;;;5.75;3.65;;;-0.30;99.90;;;;;;2066424;28;20260;-63
2021/04/08 04:25:43;;;;;;;5.17;3.53;;;-0.30;99.90;;;;;;2066292;28;20175;-63
2021/04/08 04:26:44;;;;;;;6.13;3.43;;;-0.30;99.90;;;;;;2066252;28;20711;-64
2021/04/08 04:27:45;;;;;;;7.30;3.70;;;-0.30;99.90;;;;;;2065727;28;20178;-64
2021/04/08 04:28:45;;;;;;;5.13;3.40;;;-0.30;99.90;;;;;;2065716;28;20224;-64
2021/04/08 04:29:46;;;;;;;4.60;3.57;;;-0.30;99.90;;;;;;2066135;28;20268;-63
2021/04/08 04:30:47;;;;;;;6.20;4.53;;;-0.30;99.90;;;;;;2066168;28;20188;-63
2021/04/08 04:31:47;;;;;;;7.20;3.73;;;-0.40;99.90;;;;;;2065902;28;20280;-63
2021/04/08 04:32:48;;;;;;;7.13;3.60;;;-0.40;99.90;;;;;;2065728;28;20240;-63
2021/04/08 04:33:49;;;;;;;5.43;3.83;;;-0.40;99.90;;;;;;2065613;28;20671;-63
2021/04/08 04:34:49;;;;;;;5.03;3.20;;;-0.40;99.90;;;;;;2066242;28;20680;-63
2021/04/08 04:35:53;;;;;;;7.20;3.93;;;-0.40;99.90;;;;;;2066181;28;20187;-64
2021/04/08 04:36:54;;;;;;;6.45;3.92;;;-0.40;99.90;;;;;;2066183;28;20312;-63
2021/04/08 04:37:55;;;;;;;6.83;3.73;;;-0.40;99.90;;;;;;2066273;28;20235;-63
2021/04/08 04:38:56;;;;;;;10.77;4.10;;;-0.50;99.90;;;;;;2065346;28;20263;-64
2021/04/08 04:39:57;;;;;;;5.77;3.77;;;-0.40;99.90;;;;;;2065557;28;20292;-64
2021/04/08 04:40:57;;;;;;;6.88;3.85;;;-0.40;99.90;;;;;;2065468;28;20182;-63
2021/04/08 04:41:58;;;;;;;7.70;4.20;;;-0.50;99.90;;;;;;2065527;28;20204;-63
2021/04/08 04:42:59;;;;;;;8.53;4.10;;;-0.50;99.90;;;;;;2066040;28;20230;-63
2021/04/08 04:44:00;;;;;;;13.03;4.87;;;-0.50;99.90;;;;;;2066015;28;20181;-63
2021/04/08 04:45:02;;;;;;;16.47;7.60;;;-0.60;99.90;;;;;;2066112;28;20180;-63
2021/04/08 04:46:04;;;;;;;23.02;8.70;;;-0.60;99.90;;;;;;2066117;28;20892;-63
2021/04/08 04:47:05;;;;;;;9.05;5.32;;;-0.60;99.90;;;;;;2065271;28;20187;-63
2021/04/08 04:48:09;;;;;;;8.87;4.77;;;-0.70;99.90;;;;;;2065488;28;20219;-64
2021/04/08 04:49:09;;;;;;;9.68;5.18;;;-0.70;99.90;;;;;;2065906;28;20216;-63
2021/04/08 04:50:13;;;;;;;9.97;5.30;;;-0.70;99.90;;;;;;2065275;28;20193;-64
2021/04/08 04:51:14;;;;;;;9.38;5.35;;;-0.70;99.90;;;;;;2065167;28;20621;-63
2021/04/08 04:52:15;;;;;;;8.60;4.73;;;-0.70;99.90;;;;;;2065330;28;20192;-63
2021/04/08 04:53:16;;;;;;;9.40;5.00;;;-0.60;99.90;;;;;;2065430;28;20201;-63
2021/04/08 04:54:17;;;;;;;6.30;4.77;;;-0.60;99.90;;;;;;2065857;28;20189;-63
2021/04/08 04:55:17;;;;;;;8.88;5.15;;;-0.60;99.90;;;;;;2065867;28;20205;-64
2021/04/08 04:56:18;;;;;;;12.10;6.23;;;-0.60;99.90;;;;;;2065344;28;20856;-63
2021/04/08 04:57:19;;;;;;;8.63;5.57;;;-0.60;99.90;;;;;;2065350;28;20187;-64
2021/04/08 04:58:19;;;;;;;7.17;5.20;;;-0.60;99.90;;;;;;2066023;28;20200;-63
2021/04/08 04:59:21;;;;;;;8.67;4.80;;;-0.60;99.90;;;;;;2065836;28;20203;-63
2021/04/08 05:00:23;;;;;;;6.68;4.25;;;-0.60;99.90;;;;;;2066097;28;20191;-63
2021/04/08 05:01:23;;;;;;;6.50;4.75;;;-0.60;99.90;;;;;;2065729;28;20183;-63
2021/04/08 05:02:24;;;;;;;9.13;4.33;;;-0.60;99.90;;;;;;2065809;28;20269;-64
2021/04/08 05:03:25;;;;;;;6.83;4.60;;;-0.70;99.90;;;;;;2067495;28;20675;-63
2021/04/08 05:04:26;;;;;;;5.73;3.47;;;-0.60;99.90;;;;;;2066669;28;20234;-64
2021/04/08 05:05:26;;;;;;;5.90;3.67;;;-0.60;99.90;;;;;;2065737;28;20188;-64
2021/04/08 05:06:27;;;;;;;5.23;3.33;;;-0.70;99.90;;;;;;2065873;28;20547;-65
2021/04/08 05:07:28;;;;;;;5.97;3.53;;;-0.70;99.90;;;;;;2066049;28;20211;-64
2021/04/08 05:08:28;;;;;;;7.33;3.50;;;-0.70;99.90;;;;;;2066129;28;20218;-64
2021/04/08 05:09:29;;;;;;;6.20;3.20;;;-0.80;99.90;;;;;;2066074;28;20212;-64
2021/04/08 05:10:30;;;;;;;3.87;2.93;;;-0.80;99.90;;;;;;2066060;28;20224;-63
2021/04/08 05:11:33;;;;;;;7.60;3.40;;;-0.80;99.90;;;;;;2065829;28;20227;-63
2021/04/08 05:12:33;;;;;;;5.65;3.30;;;-0.80;99.90;;;;;;2065354;28;20181;-63
2021/04/08 05:13:34;;;;;;;5.93;3.37;;;-0.90;99.90;;;;;;2057461;28;20191;-64
2021/04/08 05:14:35;;;;;;;5.73;3.13;;;-0.90;99.90;;;;;;2065028;28;20210;-63
2021/04/08 05:15:36;;;;;;;5.23;3.47;;;-0.90;99.90;;;;;;2065797;28;20708;-63
2021/04/08 05:16:36;;;;;;;7.07;3.67;;;-0.90;99.90;;;;;;2065360;28;20533;-63
2021/04/08 05:17:37;;;;;;;6.77;3.70;;;-0.90;99.90;;;;;;2064621;28;20203;-63
2021/04/08 05:18:38;;;;;;;10.17;4.20;;;-0.90;99.90;;;;;;2064609;28;20176;-63
2021/04/08 05:19:38;;;;;;;6.70;3.60;;;-0.80;99.90;;;;;;2065386;28;20186;-64
2021/04/08 05:20:39;;;;;;;6.33;3.20;;;-0.80;99.90;;;;;;2065333;28;20171;-63
2021/04/08 05:21:40;;;;;;;7.67;3.27;;;-0.80;99.90;;;;;;2065178;28;20239;-63
2021/04/08 05:22:40;;;;;;;5.07;3.33;;;-0.80;99.90;;;;;;2065387;28;20204;-63
2021/04/08 05:23:41;;;;;;;5.80;2.87;;;-0.80;99.90;;;;;;2065212;28;20181;-64
2021/04/08 05:24:42;;;;;;;5.80;3.23;;;-0.80;99.90;;;;;;2065175;28;20221;-64
2021/04/08 05:25:43;;;;;;;4.72;3.15;;;-0.80;99.90;;;;;;2065315;28;20177;-64
2021/04/08 05:26:44;;;;;;;7.97;3.83;;;-0.80;99.90;;;;;;2065233;28;20578;-63
2021/04/08 05:27:44;;;;;;;5.63;2.95;;;-0.80;99.90;;;;;;2065311;28;20259;-63
2021/04/08 05:28:45;;;;;;;6.73;2.80;;;-0.90;99.90;;;;;;2065168;28;20190;-63
2021/04/08 05:29:46;;;;;;;7.97;3.00;;;-0.80;99.90;;;;;;2065290;28;20176;-63